sensor_id;sensor_type;location;lat;lon;timestamp;temperature;humidity
52895;DHT22;38759;53.396;6.722;2023-08-24T00:01:33;14.80;99.90
52895;DHT22;38759;53.396;6.722;2023-08-24T00:03:58;14.70;99.90
52895;DHT22;38759;53.396;6.722;2023-08-24T00:06:24;14.70;99.90
52895;DHT22;38759;53.396;6.722;2023-08-24T00:08:50;14.70;99.90
52895;DHT22;38759;53.396;6.722;2023-08-24T00:11:15;14.70;99.90
52895;DHT22;38759;53.396;6.722;2023-08-24T00:13:42;14.70;99.90
52895;DHT22;38759;53.396;6.722;2023-08-24T00:16:17;14.70;99.90
52895;DHT22;38759;53.396;6.722;2023-08-24T00:18:43;14.70;99.90
52895;DHT22;38759;53.396;6.722;2023-08-24T00:21:10;14.70;99.90
52895;DHT22;38759;53.396;6.722;2023-08-24T00:23:36;14.70;99.90
52895;DHT22;38759;53.396;6.722;2023-08-24T00:26:02;14.60;99.90
52895;DHT22;38759;53.396;6.722;2023-08-24T00:28:27;14.70;99.90
52895;DHT22;38759;53.396;6.722;2023-08-24T00:30:53;14.50;99.90
52895;DHT22;38759;53.396;6.722;2023-08-24T00:33:19;14.50;99.90
52895;DHT22;38759;53.396;6.722;2023-08-24T00:35:45;14.40;99.90
52895;DHT22;38759;53.396;6.722;2023-08-24T00:38:10;14.40;99.90
52895;DHT22;38759;53.396;6.722;2023-08-24T00:40:36;14.30;99.90
52895;DHT22;38759;53.396;6.722;2023-08-24T00:43:04;14.40;99.90
52895;DHT22;38759;53.396;6.722;2023-08-24T00:45:30;14.40;99.90
52895;DHT22;38759;53.396;6.722;2023-08-24T00:47:56;14.40;99.90
52895;DHT22;38759;53.396;6.722;2023-08-24T00:50:22;14.40;99.90
52895;DHT22;38759;53.396;6.722;2023-08-24T00:52:49;14.40;99.90
52895;DHT22;38759;53.396;6.722;2023-08-24T00:55:14;14.40;99.90
52895;DHT22;38759;53.396;6.722;2023-08-24T00:57:42;14.40;99.90
52895;DHT22;38759;53.396;6.722;2023-08-24T01:00:08;14.40;99.90
52895;DHT22;38759;53.396;6.722;2023-08-24T01:02:40;14.40;99.90
52895;DHT22;38759;53.396;6.722;2023-08-24T01:05:06;14.40;99.90
52895;DHT22;38759;53.396;6.722;2023-08-24T01:07:34;14.40;99.90
52895;DHT22;38759;53.396;6.722;2023-08-24T01:10:03;14.40;99.90
52895;DHT22;38759;53.396;6.722;2023-08-24T01:13:02;14.40;99.90
52895;DHT22;38759;53.396;6.722;2023-08-24T01:18:16;14.40;99.90
52895;DHT22;38759;53.396;6.722;2023-08-24T01:20:44;14.40;99.90
52895;DHT22;38759;53.396;6.722;2023-08-24T01:28:39;14.40;99.90
52895;DHT22;38759;53.396;6.722;2023-08-24T01:31:05;14.40;99.90
52895;DHT22;38759;53.396;6.722;2023-08-24T01:33:31;14.50;99.90
52895;DHT22;38759;53.396;6.722;2023-08-24T01:35:57;14.50;99.90
52895;DHT22;38759;53.396;6.722;2023-08-24T01:38:23;14.50;99.90
52895;DHT22;38759;53.396;6.722;2023-08-24T01:41:09;14.60;99.90
52895;DHT22;38759;53.396;6.722;2023-08-24T01:43:39;14.60;99.90
52895;DHT22;38759;53.396;6.722;2023-08-24T01:46:07;14.70;99.90
52895;DHT22;38759;53.396;6.722;2023-08-24T01:48:33;14.70;99.90
52895;DHT22;38759;53.396;6.722;2023-08-24T01:51:00;14.60;99.90
52895;DHT22;38759;53.396;6.722;2023-08-24T01:53:28;14.60;99.90
52895;DHT22;38759;53.396;6.722;2023-08-24T01:55:54;14.60;99.90
52895;DHT22;38759;53.396;6.722;2023-08-24T01:58:20;14.60;99.90
52895;DHT22;38759;53.396;6.722;2023-08-24T02:00:46;14.60;99.90
52895;DHT22;38759;53.396;6.722;2023-08-24T02:03:11;14.60;99.90
52895;DHT22;38759;53.396;6.722;2023-08-24T02:05:37;14.60;99.90
52895;DHT22;38759;53.396;6.722;2023-08-24T02:08:03;14.60;99.90
52895;DHT22;38759;53.396;6.722;2023-08-24T02:10:29;14.60;99.90
52895;DHT22;38759;53.396;6.722;2023-08-24T02:12:54;14.50;99.90
52895;DHT22;38759;53.396;6.722;2023-08-24T02:15:20;14.50;99.90
52895;DHT22;38759;53.396;6.722;2023-08-24T02:17:46;14.50;99.90
52895;DHT22;38759;53.396;6.722;2023-08-24T02:20:12;14.50;99.90
52895;DHT22;38759;53.396;6.722;2023-08-24T02:22:38;14.50;99.90
52895;DHT22;38759;53.396;6.722;2023-08-24T02:25:05;14.50;99.90
52895;DHT22;38759;53.396;6.722;2023-08-24T02:27:31;14.50;99.90
52895;DHT22;38759;53.396;6.722;2023-08-24T02:29:57;14.50;99.90
52895;DHT22;38759;53.396;6.722;2023-08-24T02:32:22;14.50;99.90
52895;DHT22;38759;53.396;6.722;2023-08-24T02:34:48;14.50;99.90
52895;DHT22;38759;53.396;6.722;2023-08-24T02:37:14;14.50;99.90
52895;DHT22;38759;53.396;6.722;2023-08-24T02:39:40;14.50;99.90
52895;DHT22;38759;53.396;6.722;2023-08-24T02:42:05;14.50;99.90
52895;DHT22;38759;53.396;6.722;2023-08-24T02:44:31;14.50;99.90
52895;DHT22;38759;53.396;6.722;2023-08-24T02:46:57;14.60;99.90
52895;DHT22;38759;53.396;6.722;2023-08-24T02:49:23;14.50;99.90
52895;DHT22;38759;53.396;6.722;2023-08-24T02:51:49;14.50;99.90
52895;DHT22;38759;53.396;6.722;2023-08-24T02:54:14;14.50;99.90
52895;DHT22;38759;53.396;6.722;2023-08-24T02:56:40;14.50;99.90
52895;DHT22;38759;53.396;6.722;2023-08-24T02:59:06;14.60;99.90
52895;DHT22;38759;53.396;6.722;2023-08-24T03:01:31;14.60;99.90
52895;DHT22;38759;53.396;6.722;2023-08-24T03:03:57;14.60;99.90
52895;DHT22;38759;53.396;6.722;2023-08-24T03:06:23;14.60;99.90
52895;DHT22;38759;53.396;6.722;2023-08-24T03:08:49;14.70;99.90
52895;DHT22;38759;53.396;6.722;2023-08-24T03:11:15;14.70;99.90
52895;DHT22;38759;53.396;6.722;2023-08-24T03:13:41;14.70;99.90
52895;DHT22;38759;53.396;6.722;2023-08-24T03:16:08;14.70;99.90
52895;DHT22;38759;53.396;6.722;2023-08-24T03:18:34;14.80;99.90
52895;DHT22;38759;53.396;6.722;2023-08-24T03:21:00;14.80;99.90
52895;DHT22;38759;53.396;6.722;2023-08-24T03:23:26;14.80;99.90
52895;DHT22;38759;53.396;6.722;2023-08-24T03:25:52;14.80;99.90
52895;DHT22;38759;53.396;6.722;2023-08-24T03:28:18;14.80;99.90
52895;DHT22;38759;53.396;6.722;2023-08-24T03:30:51;14.80;99.90
52895;DHT22;38759;53.396;6.722;2023-08-24T03:33:17;14.80;99.90
52895;DHT22;38759;53.396;6.722;2023-08-24T03:35:44;14.80;99.90
52895;DHT22;38759;53.396;6.722;2023-08-24T03:38:10;14.90;99.90
52895;DHT22;38759;53.396;6.722;2023-08-24T03:40:36;14.90;99.90
52895;DHT22;38759;53.396;6.722;2023-08-24T03:43:02;14.90;99.90
52895;DHT22;38759;53.396;6.722;2023-08-24T03:45:28;14.90;99.90
52895;DHT22;38759;53.396;6.722;2023-08-24T03:47:54;14.90;99.90
52895;DHT22;38759;53.396;6.722;2023-08-24T03:50:19;14.90;99.90
52895;DHT22;38759;53.396;6.722;2023-08-24T03:52:45;14.90;99.90
52895;DHT22;38759;53.396;6.722;2023-08-24T03:55:11;14.90;99.90
52895;DHT22;38759;53.396;6.722;2023-08-24T03:57:36;14.90;99.90
52895;DHT22;38759;53.396;6.722;2023-08-24T04:00:04;14.80;99.90
52895;DHT22;38759;53.396;6.722;2023-08-24T04:02:32;14.80;99.90
52895;DHT22;38759;53.396;6.722;2023-08-24T04:04:58;14.80;99.90
52895;DHT22;38759;53.396;6.722;2023-08-24T04:07:24;14.80;99.90
52895;DHT22;38759;53.396;6.722;2023-08-24T04:09:49;14.70;99.90
52895;DHT22;38759;53.396;6.722;2023-08-24T04:12:15;14.70;99.90
52895;DHT22;38759;53.396;6.722;2023-08-24T04:14:41;14.80;99.90
52895;DHT22;38759;53.396;6.722;2023-08-24T04:17:06;14.80;99.90
52895;DHT22;38759;53.396;6.722;2023-08-24T04:19:32;14.70;99.90
52895;DHT22;38759;53.396;6.722;2023-08-24T04:21:57;14.80;99.90
52895;DHT22;38759;53.396;6.722;2023-08-24T04:24:23;14.80;99.90
52895;DHT22;38759;53.396;6.722;2023-08-24T04:26:50;14.80;99.90
52895;DHT22;38759;53.396;6.722;2023-08-24T04:29:17;14.80;99.90
52895;DHT22;38759;53.396;6.722;2023-08-24T04:31:43;14.70;99.90
52895;DHT22;38759;53.396;6.722;2023-08-24T04:34:08;14.70;99.90
52895;DHT22;38759;53.396;6.722;2023-08-24T04:36:34;14.70;99.90
52895;DHT22;38759;53.396;6.722;2023-08-24T04:39:00;14.70;99.90
52895;DHT22;38759;53.396;6.722;2023-08-24T04:41:27;14.70;99.90
52895;DHT22;38759;53.396;6.722;2023-08-24T04:43:53;14.60;99.90
52895;DHT22;38759;53.396;6.722;2023-08-24T04:46:20;14.60;99.90
52895;DHT22;38759;53.396;6.722;2023-08-24T04:48:45;14.60;99.90
52895;DHT22;38759;53.396;6.722;2023-08-24T04:51:11;14.60;99.90
52895;DHT22;38759;53.396;6.722;2023-08-24T04:53:37;14.60;99.90
52895;DHT22;38759;53.396;6.722;2023-08-24T04:56:02;14.60;99.90
52895;DHT22;38759;53.396;6.722;2023-08-24T04:58:28;14.60;99.90
52895;DHT22;38759;53.396;6.722;2023-08-24T05:00:54;14.70;99.90
52895;DHT22;38759;53.396;6.722;2023-08-24T05:03:21;14.70;99.90
52895;DHT22;38759;53.396;6.722;2023-08-24T05:05:47;14.70;99.90
52895;DHT22;38759;53.396;6.722;2023-08-24T05:08:13;14.70;99.90
52895;DHT22;38759;53.396;6.722;2023-08-24T05:10:39;14.70;99.90
52895;DHT22;38759;53.396;6.722;2023-08-24T05:13:04;14.60;99.90
52895;DHT22;38759;53.396;6.722;2023-08-24T05:15:30;14.60;99.90
52895;DHT22;38759;53.396;6.722;2023-08-24T05:17:56;14.70;99.90
52895;DHT22;38759;53.396;6.722;2023-08-24T05:20:25;14.60;99.90
52895;DHT22;38759;53.396;6.722;2023-08-24T05:22:51;14.60;99.90
52895;DHT22;38759;53.396;6.722;2023-08-24T05:25:16;14.60;99.90
52895;DHT22;38759;53.396;6.722;2023-08-24T05:27:43;14.60;99.90
52895;DHT22;38759;53.396;6.722;2023-08-24T05:30:09;14.60;99.90
52895;DHT22;38759;53.396;6.722;2023-08-24T05:32:35;14.60;99.90
52895;DHT22;38759;53.396;6.722;2023-08-24T05:35:05;14.60;99.90
52895;DHT22;38759;53.396;6.722;2023-08-24T05:37:31;14.60;99.90
52895;DHT22;38759;53.396;6.722;2023-08-24T05:39:56;14.60;99.90
52895;DHT22;38759;53.396;6.722;2023-08-24T05:42:22;14.60;99.90
52895;DHT22;38759;53.396;6.722;2023-08-24T05:44:48;14.60;99.90
52895;DHT22;38759;53.396;6.722;2023-08-24T05:47:13;14.60;99.90
52895;DHT22;38759;53.396;6.722;2023-08-24T05:49:39;14.70;99.90
52895;DHT22;38759;53.396;6.722;2023-08-24T05:52:05;14.70;99.90
52895;DHT22;38759;53.396;6.722;2023-08-24T05:54:31;14.70;99.90
52895;DHT22;38759;53.396;6.722;2023-08-24T05:57:00;14.80;99.90
52895;DHT22;38759;53.396;6.722;2023-08-24T05:59:27;14.80;99.90
52895;DHT22;38759;53.396;6.722;2023-08-24T06:01:53;14.80;99.90
52895;DHT22;38759;53.396;6.722;2023-08-24T06:04:18;14.90;99.90
52895;DHT22;38759;53.396;6.722;2023-08-24T06:06:45;15.00;99.90
52895;DHT22;38759;53.396;6.722;2023-08-24T06:09:10;15.00;99.90
52895;DHT22;38759;53.396;6.722;2023-08-24T06:11:36;15.10;99.90
52895;DHT22;38759;53.396;6.722;2023-08-24T06:14:02;15.20;99.90
52895;DHT22;38759;53.396;6.722;2023-08-24T06:16:28;15.30;99.90
52895;DHT22;38759;53.396;6.722;2023-08-24T06:18:54;15.40;99.90
52895;DHT22;38759;53.396;6.722;2023-08-24T06:21:20;15.40;99.90
52895;DHT22;38759;53.396;6.722;2023-08-24T06:23:45;15.50;99.90
52895;DHT22;38759;53.396;6.722;2023-08-24T06:26:13;15.60;99.90
52895;DHT22;38759;53.396;6.722;2023-08-24T06:28:39;15.70;99.90
52895;DHT22;38759;53.396;6.722;2023-08-24T06:31:05;15.70;99.90
52895;DHT22;38759;53.396;6.722;2023-08-24T06:33:36;15.90;99.90
52895;DHT22;38759;53.396;6.722;2023-08-24T06:36:03;15.90;99.90
52895;DHT22;38759;53.396;6.722;2023-08-24T06:38:31;16.00;99.90
52895;DHT22;38759;53.396;6.722;2023-08-24T06:41:00;16.10;99.90
52895;DHT22;38759;53.396;6.722;2023-08-24T06:43:26;16.20;99.90
52895;DHT22;38759;53.396;6.722;2023-08-24T06:45:54;16.20;99.90
52895;DHT22;38759;53.396;6.722;2023-08-24T06:48:19;16.30;99.90
52895;DHT22;38759;53.396;6.722;2023-08-24T06:50:45;16.40;99.90
52895;DHT22;38759;53.396;6.722;2023-08-24T06:53:11;16.40;99.90
52895;DHT22;38759;53.396;6.722;2023-08-24T06:55:37;16.50;99.90
52895;DHT22;38759;53.396;6.722;2023-08-24T06:58:03;16.60;99.90
52895;DHT22;38759;53.396;6.722;2023-08-24T07:00:32;16.60;99.90
52895;DHT22;38759;53.396;6.722;2023-08-24T07:02:59;16.70;99.90
52895;DHT22;38759;53.396;6.722;2023-08-24T07:05:25;16.70;99.90
52895;DHT22;38759;53.396;6.722;2023-08-24T07:07:51;16.70;99.90
52895;DHT22;38759;53.396;6.722;2023-08-24T07:10:16;16.80;99.90
52895;DHT22;38759;53.396;6.722;2023-08-24T07:12:43;16.80;99.90
52895;DHT22;38759;53.396;6.722;2023-08-24T07:15:11;16.90;99.90
52895;DHT22;38759;53.396;6.722;2023-08-24T07:17:36;16.90;99.90
52895;DHT22;38759;53.396;6.722;2023-08-24T07:20:03;16.90;99.90
52895;DHT22;38759;53.396;6.722;2023-08-24T07:22:31;17.00;99.90
52895;DHT22;38759;53.396;6.722;2023-08-24T07:24:57;17.00;99.90
52895;DHT22;38759;53.396;6.722;2023-08-24T07:27:22;17.10;99.90
52895;DHT22;38759;53.396;6.722;2023-08-24T07:29:48;17.20;99.90
52895;DHT22;38759;53.396;6.722;2023-08-24T07:32:14;17.30;99.90
52895;DHT22;38759;53.396;6.722;2023-08-24T07:34:40;17.40;99.90
52895;DHT22;38759;53.396;6.722;2023-08-24T07:37:05;17.40;99.90
52895;DHT22;38759;53.396;6.722;2023-08-24T07:39:32;17.50;99.90
52895;DHT22;38759;53.396;6.722;2023-08-24T07:41:59;17.50;99.90
52895;DHT22;38759;53.396;6.722;2023-08-24T07:44:25;17.70;99.90
52895;DHT22;38759;53.396;6.722;2023-08-24T07:46:50;17.70;99.90
52895;DHT22;38759;53.396;6.722;2023-08-24T07:49:16;17.80;99.90
52895;DHT22;38759;53.396;6.722;2023-08-24T07:51:42;17.90;99.90
52895;DHT22;38759;53.396;6.722;2023-08-24T07:54:13;17.90;99.90
52895;DHT22;38759;53.396;6.722;2023-08-24T07:56:38;18.10;99.90
52895;DHT22;38759;53.396;6.722;2023-08-24T07:59:04;18.20;99.90
52895;DHT22;38759;53.396;6.722;2023-08-24T08:01:30;18.40;99.90
52895;DHT22;38759;53.396;6.722;2023-08-24T08:03:56;18.50;99.90
52895;DHT22;38759;53.396;6.722;2023-08-24T08:06:21;18.60;99.90
52895;DHT22;38759;53.396;6.722;2023-08-24T08:08:50;18.80;99.90
52895;DHT22;38759;53.396;6.722;2023-08-24T08:11:17;18.90;99.90
52895;DHT22;38759;53.396;6.722;2023-08-24T08:13:43;18.90;99.90
52895;DHT22;38759;53.396;6.722;2023-08-24T08:16:09;19.00;99.90
52895;DHT22;38759;53.396;6.722;2023-08-24T08:18:36;19.10;99.90
52895;DHT22;38759;53.396;6.722;2023-08-24T08:21:15;19.20;99.90
52895;DHT22;38759;53.396;6.722;2023-08-24T08:23:43;19.20;99.90
52895;DHT22;38759;53.396;6.722;2023-08-24T08:26:10;19.30;99.90
52895;DHT22;38759;53.396;6.722;2023-08-24T08:28:36;19.40;99.90
52895;DHT22;38759;53.396;6.722;2023-08-24T08:31:01;19.50;99.90
52895;DHT22;38759;53.396;6.722;2023-08-24T08:33:29;19.60;99.90
52895;DHT22;38759;53.396;6.722;2023-08-24T08:35:55;19.70;99.90
52895;DHT22;38759;53.396;6.722;2023-08-24T08:38:21;19.70;99.90
52895;DHT22;38759;53.396;6.722;2023-08-24T08:40:51;19.80;99.90
52895;DHT22;38759;53.396;6.722;2023-08-24T08:43:21;19.80;99.90
52895;DHT22;38759;53.396;6.722;2023-08-24T08:45:49;19.80;99.90
52895;DHT22;38759;53.396;6.722;2023-08-24T08:48:15;20.00;99.90
52895;DHT22;38759;53.396;6.722;2023-08-24T08:50:41;20.10;99.90
52895;DHT22;38759;53.396;6.722;2023-08-24T08:53:07;20.20;99.90
52895;DHT22;38759;53.396;6.722;2023-08-24T08:55:33;20.30;99.90
52895;DHT22;38759;53.396;6.722;2023-08-24T08:58:00;20.40;99.90
52895;DHT22;38759;53.396;6.722;2023-08-24T09:00:28;20.60;99.90
52895;DHT22;38759;53.396;6.722;2023-08-24T09:02:54;20.80;99.90
52895;DHT22;38759;53.396;6.722;2023-08-24T09:05:22;20.80;99.90
52895;DHT22;38759;53.396;6.722;2023-08-24T09:07:52;21.00;99.90
52895;DHT22;38759;53.396;6.722;2023-08-24T09:10:18;21.10;99.90
52895;DHT22;38759;53.396;6.722;2023-08-24T09:12:44;21.30;99.90
52895;DHT22;38759;53.396;6.722;2023-08-24T09:15:10;21.40;99.90
52895;DHT22;38759;53.396;6.722;2023-08-24T09:17:36;21.60;99.90
52895;DHT22;38759;53.396;6.722;2023-08-24T09:20:07;21.70;99.90
52895;DHT22;38759;53.396;6.722;2023-08-24T09:22:37;21.80;99.90
52895;DHT22;38759;53.396;6.722;2023-08-24T09:25:09;21.80;99.90
52895;DHT22;38759;53.396;6.722;2023-08-24T09:27:35;22.00;99.90
52895;DHT22;38759;53.396;6.722;2023-08-24T09:30:01;22.00;99.90
52895;DHT22;38759;53.396;6.722;2023-08-24T09:32:31;22.20;99.90
52895;DHT22;38759;53.396;6.722;2023-08-24T09:35:20;22.30;99.90
52895;DHT22;38759;53.396;6.722;2023-08-24T09:37:49;22.30;99.90
52895;DHT22;38759;53.396;6.722;2023-08-24T09:40:15;22.40;99.90
52895;DHT22;38759;53.396;6.722;2023-08-24T09:42:43;22.50;99.90
52895;DHT22;38759;53.396;6.722;2023-08-24T09:45:12;22.50;99.90
52895;DHT22;38759;53.396;6.722;2023-08-24T09:47:38;22.40;99.90
52895;DHT22;38759;53.396;6.722;2023-08-24T09:50:05;22.40;99.90
52895;DHT22;38759;53.396;6.722;2023-08-24T09:52:33;22.40;99.90
52895;DHT22;38759;53.396;6.722;2023-08-24T09:55:05;22.40;99.90
52895;DHT22;38759;53.396;6.722;2023-08-24T09:57:38;22.40;99.90
52895;DHT22;38759;53.396;6.722;2023-08-24T10:00:09;22.40;99.90
52895;DHT22;38759;53.396;6.722;2023-08-24T10:03:00;22.30;99.90
52895;DHT22;38759;53.396;6.722;2023-08-24T10:05:27;22.30;99.90
52895;DHT22;38759;53.396;6.722;2023-08-24T10:07:55;22.40;99.90
52895;DHT22;38759;53.396;6.722;2023-08-24T10:10:25;22.30;99.90
52895;DHT22;38759;53.396;6.722;2023-08-24T10:12:56;22.30;99.90
52895;DHT22;38759;53.396;6.722;2023-08-24T10:15:23;22.30;99.90
52895;DHT22;38759;53.396;6.722;2023-08-24T10:17:50;22.20;99.90
52895;DHT22;38759;53.396;6.722;2023-08-24T10:20:21;22.20;99.90
52895;DHT22;38759;53.396;6.722;2023-08-24T10:22:47;22.20;99.90
52895;DHT22;38759;53.396;6.722;2023-08-24T10:25:16;22.10;99.90
52895;DHT22;38759;53.396;6.722;2023-08-24T10:27:42;22.10;99.90
52895;DHT22;38759;53.396;6.722;2023-08-24T10:30:13;22.10;99.90
52895;DHT22;38759;53.396;6.722;2023-08-24T10:32:40;22.10;99.90
52895;DHT22;38759;53.396;6.722;2023-08-24T10:35:07;22.00;99.90
52895;DHT22;38759;53.396;6.722;2023-08-24T10:37:33;22.00;99.90
52895;DHT22;38759;53.396;6.722;2023-08-24T10:40:00;22.00;99.90
52895;DHT22;38759;53.396;6.722;2023-08-24T10:42:26;22.00;99.90
52895;DHT22;38759;53.396;6.722;2023-08-24T10:44:52;21.90;99.90
52895;DHT22;38759;53.396;6.722;2023-08-24T10:47:22;21.90;99.90
52895;DHT22;38759;53.396;6.722;2023-08-24T10:54:53;21.90;99.90
52895;DHT22;38759;53.396;6.722;2023-08-24T10:57:27;21.90;99.90
52895;DHT22;38759;53.396;6.722;2023-08-24T11:00:05;21.90;99.90
52895;DHT22;38759;53.396;6.722;2023-08-24T11:02:41;21.90;99.90
52895;DHT22;38759;53.396;6.722;2023-08-24T11:07:58;21.90;99.90
52895;DHT22;38759;53.396;6.722;2023-08-24T11:13:14;21.90;99.90
52895;DHT22;38759;53.396;6.722;2023-08-24T11:15:47;21.90;99.90
52895;DHT22;38759;53.396;6.722;2023-08-24T11:21:05;21.90;99.90
52895;DHT22;38759;53.396;6.722;2023-08-24T11:23:32;21.80;99.90
52895;DHT22;38759;53.396;6.722;2023-08-24T11:25:59;21.80;99.90
52895;DHT22;38759;53.396;6.722;2023-08-24T11:28:26;21.90;99.90
52895;DHT22;38759;53.396;6.722;2023-08-24T11:30:53;21.90;99.90
52895;DHT22;38759;53.396;6.722;2023-08-24T11:33:32;21.90;99.90
52895;DHT22;38759;53.396;6.722;2023-08-24T11:35:59;21.90;99.90
52895;DHT22;38759;53.396;6.722;2023-08-24T11:38:41;21.80;99.90
52895;DHT22;38759;53.396;6.722;2023-08-24T11:41:14;21.80;99.90
52895;DHT22;38759;53.396;6.722;2023-08-24T11:43:42;21.90;99.90
52895;DHT22;38759;53.396;6.722;2023-08-24T11:46:08;21.80;99.90
52895;DHT22;38759;53.396;6.722;2023-08-24T11:48:34;21.90;99.90
52895;DHT22;38759;53.396;6.722;2023-08-24T11:51:02;21.90;99.90
52895;DHT22;38759;53.396;6.722;2023-08-24T11:53:28;21.80;99.90
52895;DHT22;38759;53.396;6.722;2023-08-24T11:55:57;21.90;99.90
52895;DHT22;38759;53.396;6.722;2023-08-24T11:58:22;21.90;99.90
52895;DHT22;38759;53.396;6.722;2023-08-24T12:00:48;21.90;99.90
52895;DHT22;38759;53.396;6.722;2023-08-24T12:03:14;21.90;99.90
52895;DHT22;38759;53.396;6.722;2023-08-24T12:05:40;22.00;99.90
52895;DHT22;38759;53.396;6.722;2023-08-24T12:08:06;21.90;99.90
52895;DHT22;38759;53.396;6.722;2023-08-24T12:10:32;22.00;99.90
52895;DHT22;38759;53.396;6.722;2023-08-24T12:13:05;22.00;99.90
52895;DHT22;38759;53.396;6.722;2023-08-24T12:15:33;22.00;99.90
52895;DHT22;38759;53.396;6.722;2023-08-24T12:18:13;22.00;99.90
52895;DHT22;38759;53.396;6.722;2023-08-24T12:20:43;21.90;99.90
52895;DHT22;38759;53.396;6.722;2023-08-24T12:23:10;21.90;99.90
52895;DHT22;38759;53.396;6.722;2023-08-24T12:25:37;21.90;99.90
52895;DHT22;38759;53.396;6.722;2023-08-24T12:28:10;21.90;99.90
52895;DHT22;38759;53.396;6.722;2023-08-24T12:30:50;21.90;99.90
52895;DHT22;38759;53.396;6.722;2023-08-24T12:33:31;21.90;99.90
52895;DHT22;38759;53.396;6.722;2023-08-24T12:35:57;21.90;99.90
52895;DHT22;38759;53.396;6.722;2023-08-24T12:38:26;21.90;99.90
52895;DHT22;38759;53.396;6.722;2023-08-24T12:40:53;21.90;99.90
52895;DHT22;38759;53.396;6.722;2023-08-24T12:43:19;22.00;99.90
52895;DHT22;38759;53.396;6.722;2023-08-24T12:45:45;22.00;99.90
52895;DHT22;38759;53.396;6.722;2023-08-24T12:48:11;22.00;99.90
52895;DHT22;38759;53.396;6.722;2023-08-24T12:50:40;22.00;99.90
52895;DHT22;38759;53.396;6.722;2023-08-24T12:53:05;22.00;99.90
52895;DHT22;38759;53.396;6.722;2023-08-24T12:55:35;22.00;99.90
52895;DHT22;38759;53.396;6.722;2023-08-24T12:58:02;22.00;99.90
52895;DHT22;38759;53.396;6.722;2023-08-24T13:00:27;22.00;99.90
52895;DHT22;38759;53.396;6.722;2023-08-24T13:02:53;22.00;99.90
52895;DHT22;38759;53.396;6.722;2023-08-24T13:05:19;22.10;99.90
52895;DHT22;38759;53.396;6.722;2023-08-24T13:07:44;22.10;99.90
52895;DHT22;38759;53.396;6.722;2023-08-24T13:10:10;22.10;99.90
52895;DHT22;38759;53.396;6.722;2023-08-24T13:12:37;22.10;99.90
52895;DHT22;38759;53.396;6.722;2023-08-24T13:15:03;22.20;99.90
52895;DHT22;38759;53.396;6.722;2023-08-24T13:17:32;22.20;99.90
52895;DHT22;38759;53.396;6.722;2023-08-24T13:19:58;22.20;99.90
52895;DHT22;38759;53.396;6.722;2023-08-24T13:22:24;22.20;99.90
52895;DHT22;38759;53.396;6.722;2023-08-24T13:24:49;22.20;99.90
52895;DHT22;38759;53.396;6.722;2023-08-24T13:27:15;22.20;99.90
52895;DHT22;38759;53.396;6.722;2023-08-24T13:29:41;22.20;99.90
52895;DHT22;38759;53.396;6.722;2023-08-24T13:32:07;22.20;99.90
52895;DHT22;38759;53.396;6.722;2023-08-24T13:34:33;22.20;99.90
52895;DHT22;38759;53.396;6.722;2023-08-24T13:36:59;22.20;99.90
52895;DHT22;38759;53.396;6.722;2023-08-24T13:39:29;22.20;99.90
52895;DHT22;38759;53.396;6.722;2023-08-24T13:41:55;22.20;99.90
52895;DHT22;38759;53.396;6.722;2023-08-24T13:44:22;22.20;99.90
52895;DHT22;38759;53.396;6.722;2023-08-24T13:46:48;22.20;99.90
52895;DHT22;38759;53.396;6.722;2023-08-24T13:49:13;22.20;99.90
52895;DHT22;38759;53.396;6.722;2023-08-24T13:51:39;22.20;99.90
52895;DHT22;38759;53.396;6.722;2023-08-24T13:54:13;22.20;99.90
52895;DHT22;38759;53.396;6.722;2023-08-24T13:56:40;22.20;99.90
52895;DHT22;38759;53.396;6.722;2023-08-24T13:59:06;22.20;99.90
52895;DHT22;38759;53.396;6.722;2023-08-24T14:01:31;22.20;99.90
52895;DHT22;38759;53.396;6.722;2023-08-24T14:03:57;22.10;99.90
52895;DHT22;38759;53.396;6.722;2023-08-24T14:06:23;22.10;99.90
52895;DHT22;38759;53.396;6.722;2023-08-24T14:08:48;22.10;99.90
52895;DHT22;38759;53.396;6.722;2023-08-24T14:11:14;22.00;99.90
52895;DHT22;38759;53.396;6.722;2023-08-24T14:13:42;22.00;99.90
52895;DHT22;38759;53.396;6.722;2023-08-24T14:16:07;22.10;99.90
52895;DHT22;38759;53.396;6.722;2023-08-24T14:18:33;22.00;99.90
52895;DHT22;38759;53.396;6.722;2023-08-24T14:21:02;22.00;99.90
52895;DHT22;38759;53.396;6.722;2023-08-24T14:23:28;22.00;99.90
52895;DHT22;38759;53.396;6.722;2023-08-24T14:25:54;22.00;99.90
52895;DHT22;38759;53.396;6.722;2023-08-24T14:28:21;22.00;99.90
52895;DHT22;38759;53.396;6.722;2023-08-24T14:30:49;22.00;99.90
52895;DHT22;38759;53.396;6.722;2023-08-24T14:33:15;21.90;99.90
52895;DHT22;38759;53.396;6.722;2023-08-24T14:35:40;21.90;99.90
52895;DHT22;38759;53.396;6.722;2023-08-24T14:38:06;21.90;99.90
52895;DHT22;38759;53.396;6.722;2023-08-24T14:40:31;21.90;99.90
52895;DHT22;38759;53.396;6.722;2023-08-24T14:42:57;21.90;99.90
52895;DHT22;38759;53.396;6.722;2023-08-24T14:45:23;21.90;99.90
52895;DHT22;38759;53.396;6.722;2023-08-24T14:47:48;21.80;99.90
52895;DHT22;38759;53.396;6.722;2023-08-24T14:50:14;21.80;99.90
52895;DHT22;38759;53.396;6.722;2023-08-24T14:52:40;21.80;99.90
52895;DHT22;38759;53.396;6.722;2023-08-24T14:55:07;21.80;99.90
52895;DHT22;38759;53.396;6.722;2023-08-24T14:57:34;21.80;99.90
52895;DHT22;38759;53.396;6.722;2023-08-24T15:00:00;21.70;99.90
52895;DHT22;38759;53.396;6.722;2023-08-24T15:02:26;21.70;99.90
52895;DHT22;38759;53.396;6.722;2023-08-24T15:04:53;21.60;99.90
52895;DHT22;38759;53.396;6.722;2023-08-24T15:07:19;21.60;99.90
52895;DHT22;38759;53.396;6.722;2023-08-24T15:09:44;21.60;99.90
52895;DHT22;38759;53.396;6.722;2023-08-24T15:12:10;21.60;99.90
52895;DHT22;38759;53.396;6.722;2023-08-24T15:14:35;21.70;99.90
52895;DHT22;38759;53.396;6.722;2023-08-24T15:17:01;21.70;99.90
52895;DHT22;38759;53.396;6.722;2023-08-24T15:19:27;21.70;99.90
52895;DHT22;38759;53.396;6.722;2023-08-24T15:21:52;21.70;99.90
52895;DHT22;38759;53.396;6.722;2023-08-24T15:24:18;21.70;99.90
52895;DHT22;38759;53.396;6.722;2023-08-24T15:26:44;21.70;99.90
52895;DHT22;38759;53.396;6.722;2023-08-24T15:29:12;21.70;99.90
52895;DHT22;38759;53.396;6.722;2023-08-24T15:31:43;21.70;99.90
52895;DHT22;38759;53.396;6.722;2023-08-24T15:34:09;21.70;99.90
52895;DHT22;38759;53.396;6.722;2023-08-24T15:36:35;21.70;99.90
52895;DHT22;38759;53.396;6.722;2023-08-24T15:39:01;21.70;99.90
52895;DHT22;38759;53.396;6.722;2023-08-24T15:41:27;21.60;99.90
52895;DHT22;38759;53.396;6.722;2023-08-24T15:43:52;21.60;99.90
52895;DHT22;38759;53.396;6.722;2023-08-24T15:46:18;21.60;99.90
52895;DHT22;38759;53.396;6.722;2023-08-24T15:48:44;21.60;99.90
52895;DHT22;38759;53.396;6.722;2023-08-24T15:51:10;21.60;99.90